Time;durP1;ratioP1;P1;durP2;ratioP2;P2;SDS_P1;SDS_P2;PMS_P1;PMS_P2;Temp;Humidity;BMP_temperature;BMP_pressure;BME280_temperature;BME280_humidity;BME280_pressure;Samples;Min_cycle;Max_cycle;Signal;HPM_P1;HPM_P2
2022/11/18 00:01:53;;;;;;;2.40;1.47;;;;;8.60;98947.00;;;;10402368;28;20189;-78
2022/11/18 00:06:55;;;;;;;3.10;1.27;;;;;8.60;98952.00;;;;10431989;28;20225;-78
2022/11/18 00:17:17;;;;;;;3.40;1.27;;;;;8.80;98963.00;;;;10462283;28;20189;-77
2022/11/18 00:22:19;;;;;;;5.40;1.83;;;;;8.80;98976.00;;;;10440750;28;20232;-78
2022/11/18 00:27:30;;;;;;;6.37;1.40;;;;;8.80;98973.00;;;;10474078;28;20237;-78
2022/11/18 00:32:32;;;;;;;5.90;1.80;;;;;8.90;98971.00;;;;10471033;28;20623;-77
2022/11/18 00:37:34;;;;;;;2.00;1.40;;;;;9.00;98980.00;;;;10445209;28;20197;-77
2022/11/18 00:42:51;;;;;;;4.30;1.50;;;;;9.00;98985.00;;;;10449235;28;20189;-78
2022/11/18 00:47:53;;;;;;;4.13;1.80;;;;;9.10;98992.00;;;;10463258;28;20656;-77
2022/11/18 00:52:55;;;;;;;5.87;1.77;;;;;9.10;99002.00;;;;10469133;28;20746;-78
2022/11/18 00:57:57;;;;;;;3.33;1.40;;;;;9.10;99012.00;;;;10464876;28;20568;-78
2022/11/18 01:02:59;;;;;;;5.23;1.80;;;;;9.10;99005.00;;;;10463425;28;20193;-78
2022/11/18 01:08:01;;;;;;;2.73;1.40;;;;;9.10;99016.00;;;;10436317;28;20743;-77
2022/11/18 01:13:19;;;;;;;4.90;1.97;;;;;9.00;99023.00;;;;10446967;28;20301;-78
2022/11/18 01:18:23;;;;;;;5.27;1.70;;;;;9.00;99029.00;;;;10432701;28;20752;-78
2022/11/18 01:23:25;;;;;;;2.00;1.60;;;;;9.00;99031.00;;;;10447905;28;20195;-78
2022/11/18 01:28:27;;;;;;;7.37;1.67;;;;;9.00;99037.00;;;;10458078;28;20202;-77
2022/11/18 01:33:29;;;;;;;1.67;1.07;;;;;9.00;99040.00;;;;10478701;28;20202;-77
2022/11/18 01:38:31;;;;;;;4.17;1.23;;;;;9.00;99056.00;;;;10445092;28;20538;-78
2022/11/18 01:43:57;;;;;;;1.80;1.10;;;;;8.80;99056.00;;;;10492243;28;20224;-77
2022/11/18 01:49:01;;;;;;;1.67;1.00;;;;;8.70;99059.00;;;;10447565;28;20190;-78
2022/11/18 01:54:16;;;;;;;4.60;1.17;;;;;8.70;99077.00;;;;10450392;28;20309;-78
2022/11/18 01:59:23;;;;;;;4.07;1.47;;;;;8.60;99071.00;;;;10440342;28;20572;-77
2022/11/18 02:04:26;;;;;;;2.73;1.40;;;;;8.60;99074.00;;;;10462088;28;20195;-78
2022/11/18 02:09:28;;;;;;;2.97;1.27;;;;;8.60;99089.00;;;;10465359;28;20220;-78
2022/11/18 02:14:37;;;;;;;2.93;1.40;;;;;8.60;99087.00;;;;10462651;28;20272;-77
2022/11/18 02:19:42;;;;;;;3.97;1.30;;;;;8.60;99097.00;;;;10423175;28;20248;-78
2022/11/18 02:24:52;;;;;;;2.73;1.40;;;;;8.40;99108.00;;;;10496235;28;20284;-78
2022/11/18 02:30:08;;;;;;;3.87;1.20;;;;;8.30;99118.00;;;;10452496;28;20630;-77
2022/11/18 02:35:32;;;;;;;5.40;1.30;;;;;8.30;99125.00;;;;10461937;28;20185;-77
2022/11/18 02:40:38;;;;;;;4.70;1.27;;;;;8.30;99135.00;;;;10458816;28;20656;-78
2022/11/18 02:45:45;;;;;;;4.47;1.20;;;;;8.30;99139.00;;;;10485168;28;20193;-77
2022/11/18 02:50:49;;;;;;;1.97;1.47;;;;;8.30;99142.00;;;;10437230;28;20252;-78
2022/11/18 02:55:52;;;;;;;4.57;1.63;;;;;8.10;99148.00;;;;10437077;28;20212;-78
2022/11/18 03:00:56;;;;;;;1.53;1.10;;;;;8.00;99157.00;;;;10431393;28;20217;-78
2022/11/18 03:06:09;;;;;;;4.27;1.83;;;;;7.80;99163.00;;;;10473364;28;20214;-77
2022/11/18 03:11:29;;;;;;;2.83;1.23;;;;;7.70;99170.00;;;;10430837;28;20205;-77
2022/11/18 03:16:38;;;;;;;2.43;1.30;;;;;7.60;99171.00;;;;10473154;28;20197;-78
2022/11/18 03:21:44;;;;;;;4.07;1.50;;;;;7.60;99172.00;;;;10436673;28;20205;-77
2022/11/18 03:27:06;;;;;;;4.90;1.47;;;;;7.50;99177.00;;;;10451391;28;20198;-77
2022/11/18 03:32:16;;;;;;;3.73;1.67;;;;;7.40;99184.00;;;;10412317;28;20202;-78
2022/11/18 03:37:20;;;;;;;2.67;1.60;;;;;7.30;99198.00;;;;10448013;28;20576;-78
2022/11/18 03:42:28;;;;;;;3.77;1.47;;;;;7.20;99196.00;;;;10477115;28;20244;-78
2022/11/18 03:47:57;;;;;;;4.40;1.97;;;;;7.10;99205.00;;;;10463295;28;20594;-77
2022/11/18 03:53:00;;;;;;;4.47;2.00;;;;;7.00;99215.00;;;;10457116;28;20213;-78
2022/11/18 03:58:07;;;;;;;4.17;2.60;;;;;7.00;99222.00;;;;10469470;28;20651;-77
2022/11/18 04:03:10;;;;;;;5.07;2.53;;;;;7.00;99223.00;;;;10492135;28;20215;-77
2022/11/18 04:08:20;;;;;;;5.60;2.23;;;;;6.90;99227.00;;;;10475800;28;20217;-77
2022/11/18 04:13:27;;;;;;;2.17;1.97;;;;;6.90;99239.00;;;;10481753;28;20244;-77
2022/11/18 04:18:29;;;;;;;5.23;2.60;;;;;6.90;99248.00;;;;10501029;28;20198;-77
2022/11/18 04:23:31;;;;;;;5.10;2.30;;;;;6.80;99239.00;;;;10462227;28;20211;-77
2022/11/18 04:28:32;;;;;;;5.37;3.00;;;;;6.80;99254.00;;;;10501594;28;20209;-77
2022/11/18 04:33:34;;;;;;;3.57;2.10;;;;;6.80;99248.00;;;;10478816;28;20877;-77
2022/11/18 04:38:36;;;;;;;8.13;2.37;;;;;6.90;99262.00;;;;10441132;28;20192;-78
2022/11/18 04:43:39;;;;;;;2.93;2.20;;;;;6.90;99261.00;;;;10466345;28;20198;-77
2022/11/18 04:48:41;;;;;;;3.77;2.13;;;;;6.80;99262.00;;;;10434941;28;20195;-77
2022/11/18 04:53:43;;;;;;;4.73;2.40;;;;;6.80;99271.00;;;;10473757;28;20232;-77
2022/11/18 04:58:46;;;;;;;3.83;1.90;;;;;6.70;99266.00;;;;10450009;28;20202;-77
2022/11/18 05:03:47;;;;;;;2.83;1.80;;;;;6.70;99271.00;;;;10490574;28;20195;-77
2022/11/18 05:08:51;;;;;;;3.07;1.67;;;;;6.70;99285.00;;;;10441670;28;20210;-77
2022/11/18 05:13:53;;;;;;;2.90;1.53;;;;;6.60;99295.00;;;;10448129;28;20895;-77
2022/11/18 05:18:55;;;;;;;4.47;1.67;;;;;6.50;99294.00;;;;10442705;28;20196;-77
2022/11/18 05:24:01;;;;;;;5.73;2.30;;;;;6.40;99298.00;;;;10452263;28;20206;-77
2022/11/18 05:29:03;;;;;;;5.93;2.27;;;;;6.30;99314.00;;;;10453058;28;20198;-77
2022/11/18 05:34:05;;;;;;;3.70;2.27;;;;;6.30;99318.00;;;;10459763;28;20198;-77
2022/11/18 05:39:07;;;;;;;5.43;2.20;;;;;6.20;99315.00;;;;10446415;28;20185;-77
2022/11/18 05:44:09;;;;;;;6.37;2.17;;;;;6.20;99326.00;;;;10432904;28;20239;-76
2022/11/18 05:49:11;;;;;;;5.10;2.37;;;;;6.10;99328.00;;;;10495524;28;20687;-77
2022/11/18 05:54:15;;;;;;;7.33;2.53;;;;;6.10;99333.00;;;;10456469;28;20700;-78
2022/11/18 05:59:17;;;;;;;5.33;2.50;;;;;6.10;99348.00;;;;10474591;28;20193;-78
2022/11/18 06:04:26;;;;;;;4.33;2.20;;;;;6.10;99338.00;;;;10437775;28;20208;-77
2022/11/18 06:09:32;;;;;;;4.23;2.13;;;;;6.00;99350.00;;;;10463684;28;20267;-77
2022/11/18 06:14:49;;;;;;;2.80;1.67;;;;;6.00;99352.00;;;;10478297;28;20201;-77
2022/11/18 06:19:51;;;;;;;3.70;2.00;;;;;6.10;99361.00;;;;10437421;28;20560;-78
2022/11/18 06:24:53;;;;;;;5.07;2.27;;;;;6.10;99375.00;;;;10470250;28;20553;-78
2022/11/18 06:29:55;;;;;;;6.80;2.50;;;;;6.10;99376.00;;;;10444531;28;20561;-78
2022/11/18 06:34:56;;;;;;;7.03;2.13;;;;;6.10;99382.00;;;;10459314;28;20712;-78
2022/11/18 06:39:58;;;;;;;6.20;2.33;;;;;6.00;99383.00;;;;10439944;28;20201;-78
2022/11/18 06:45:01;;;;;;;9.23;2.67;;;;;6.00;99388.00;;;;10452217;28;20189;-78
2022/11/18 06:50:05;;;;;;;5.30;1.83;;;;;6.00;99395.00;;;;10478800;28;20198;-77
2022/11/18 06:55:07;;;;;;;7.53;3.80;;;;;6.10;99403.00;;;;10429657;28;20205;-77
2022/11/18 07:00:10;;;;;;;3.77;1.80;;;;;6.10;99412.00;;;;10429234;28;20193;-78
2022/11/18 07:05:12;;;;;;;3.20;2.40;;;;;6.20;99418.00;;;;10457529;28;20205;-78
2022/11/18 07:10:14;;;;;;;4.50;2.00;;;;;6.30;99433.00;;;;10475841;28;20652;-78
2022/11/18 07:15:16;;;;;;;4.53;2.50;;;;;6.40;99438.00;;;;10460992;28;20215;-78
2022/11/18 07:20:18;;;;;;;4.57;2.80;;;;;6.60;99440.00;;;;10445107;28;20541;-78
2022/11/18 07:25:19;;;;;;;9.67;2.33;;;;;7.00;99438.00;;;;10476314;28;20216;-78
2022/11/18 07:30:21;;;;;;;6.23;1.87;;;;;7.30;99451.00;;;;10458654;28;20198;-78
2022/11/18 07:35:23;;;;;;;2.60;2.00;;;;;7.60;99454.00;;;;10493583;28;20253;-78
2022/11/18 07:40:25;;;;;;;5.13;2.60;;;;;7.80;99460.00;;;;10460589;28;20227;-77
2022/11/18 07:45:27;;;;;;;5.53;2.00;;;;;8.00;99471.00;;;;10460059;28;20186;-78
2022/11/18 07:50:29;;;;;;;4.87;1.80;;;;;8.10;99465.00;;;;10494681;28;20205;-78
2022/11/18 07:55:30;;;;;;;6.70;1.70;;;;;8.10;99476.00;;;;10477493;28;20193;-77
2022/11/18 08:00:33;;;;;;;6.93;2.87;;;;;8.20;99484.00;;;;10494957;28;20411;-78
2022/11/18 08:05:34;;;;;;;4.97;1.70;;;;;8.30;99483.00;;;;10475673;28;20226;-78
2022/11/18 08:10:36;;;;;;;4.23;2.00;;;;;8.40;99492.00;;;;10476676;28;20193;-78
2022/11/18 08:15:40;;;;;;;4.20;1.83;;;;;8.50;99495.00;;;;10459891;28;20193;-78
2022/11/18 08:20:44;;;;;;;5.47;2.20;;;;;8.60;99500.00;;;;10460216;28;20196;-78
2022/11/18 08:25:46;;;;;;;8.50;2.73;;;;;8.80;99505.00;;;;10476475;28;20202;-78
2022/11/18 08:30:48;;;;;;;7.30;2.13;;;;;8.90;99506.00;;;;10476369;28;20177;-78
2022/11/18 08:35:50;;;;;;;5.67;2.37;;;;;9.00;99520.00;;;;10476578;28;20229;-78
2022/11/18 08:40:52;;;;;;;8.97;2.57;;;;;9.10;99517.00;;;;10459697;28;20190;-78
2022/11/18 08:45:54;;;;;;;5.03;2.10;;;;;9.20;99540.00;;;;10442905;28;20672;-77
2022/11/18 08:50:57;;;;;;;6.63;2.93;;;;;9.30;99527.00;;;;10475858;28;20201;-78
2022/11/18 08:56:00;;;;;;;6.03;2.70;;;;;9.50;99535.00;;;;10441518;28;20194;-78
2022/11/18 09:01:06;;;;;;;7.47;3.43;;;;;9.60;99547.00;;;;10467176;28;20606;-77
2022/11/18 09:06:16;;;;;;;5.50;2.63;;;;;9.60;99548.00;;;;10450622;28;20213;-78
2022/11/18 09:11:23;;;;;;;6.60;2.87;;;;;9.70;99567.00;;;;10449395;28;20214;-78
2022/11/18 09:16:27;;;;;;;8.73;2.97;;;;;9.80;99566.00;;;;10449829;28;20193;-78
2022/11/18 09:21:29;;;;;;;5.43;3.13;;;;;9.90;99569.00;;;;10482454;28;20186;-78
2022/11/18 09:26:31;;;;;;;9.23;3.23;;;;;10.00;99586.00;;;;10449344;28;20671;-78
2022/11/18 09:31:33;;;;;;;5.13;2.73;;;;;10.00;99585.00;;;;10449553;28;20365;-78
2022/11/18 09:36:35;;;;;;;5.10;3.10;;;;;10.10;99581.00;;;;10465764;28;20197;-78
2022/11/18 09:41:40;;;;;;;5.33;3.07;;;;;10.20;99586.00;;;;10448213;28;20247;-78
2022/11/18 09:47:00;;;;;;;5.00;2.80;;;;;10.40;99596.00;;;;10481563;28;20198;-78
2022/11/18 09:52:11;;;;;;;8.27;2.67;;;;;10.50;99601.00;;;;10464530;28;20240;-76
2022/11/18 09:57:18;;;;;;;10.23;2.17;;;;;10.70;99597.00;;;;10499211;28;20201;-78
2022/11/18 10:02:46;;;;;;;4.73;2.50;;;;;10.80;99607.00;;;;10448492;28;20186;-78
2022/11/18 10:07:57;;;;;;;6.17;2.00;;;;;10.80;99623.00;;;;10459025;28;20218;-78
2022/11/18 10:13:07;;;;;;;6.43;2.10;;;;;10.80;99625.00;;;;10416498;28;20205;-78
2022/11/18 10:18:21;;;;;;;6.33;2.10;;;;;10.90;99636.00;;;;10480142;28;20556;-78
2022/11/18 10:24:02;;;;;;;4.57;1.80;;;;;11.00;99629.00;;;;10463294;28;20193;-78
2022/11/18 10:29:09;;;;;;;4.80;2.43;;;;;11.00;99637.00;;;;10463707;28;20656;-78
2022/11/18 10:34:17;;;;;;;5.43;1.80;;;;;10.90;99638.00;;;;10470911;28;20692;-78
2022/11/18 10:39:19;;;;;;;5.77;1.80;;;;;10.90;99646.00;;;;10454818;28;20269;-78
2022/11/18 10:44:34;;;;;;;5.50;1.73;;;;;11.00;99650.00;;;;10476134;28;20182;-78
2022/11/18 10:49:39;;;;;;;7.87;2.73;;;;;11.10;99656.00;;;;10462128;28;20755;-78
2022/11/18 10:54:41;;;;;;;8.77;2.00;;;;;11.20;99656.00;;;;10478655;28;20864;-78
2022/11/18 10:59:53;;;;;;;3.20;1.47;;;;;11.10;99657.00;;;;10461825;28;20243;-78
2022/11/18 11:04:54;;;;;;;7.60;2.10;;;;;11.10;99654.00;;;;10447356;28;20268;-78
2022/11/18 11:10:05;;;;;;;7.20;1.47;;;;;11.10;99658.00;;;;10451695;28;20196;-78
2022/11/18 11:15:17;;;;;;;5.90;1.63;;;;;11.20;99663.00;;;;10478314;28;20229;-78
2022/11/18 11:20:22;;;;;;;5.13;1.60;;;;;11.20;99666.00;;;;10459712;28;20552;-78
2022/11/18 11:25:39;;;;;;;2.80;1.13;;;;;11.30;99660.00;;;;10428202;28;20209;-78
2022/11/18 11:31:13;;;;;;;3.63;1.30;;;;;11.50;99663.00;;;;10446989;28;20276;-78
2022/11/18 11:36:17;;;;;;;4.27;1.60;;;;;11.80;99665.00;;;;10469216;28;20576;-78
2022/11/18 11:41:26;;;;;;;4.80;1.60;;;;;12.00;99675.00;;;;10435784;28;20197;-76
2022/11/18 11:47:45;;;;;;;5.17;1.30;;;;;12.30;99682.00;;;;10435695;28;20236;-76
2022/11/18 11:52:18;;;;;;;4.50;1.40;;;;;12.40;99687.00;;;;10450932;28;20201;-79
2022/11/18 11:57:45;;;;;;;6.97;1.53;;;;;12.40;99686.00;;;;10476948;28;20189;-79
2022/11/18 12:03:05;;;;;;;4.33;1.77;;;;;12.30;99691.00;;;;10468330;28;20189;-78
2022/11/18 12:08:21;;;;;;;5.13;1.57;;;;;12.20;99699.00;;;;10400986;28;20217;-78
2022/11/18 12:13:29;;;;;;;3.80;1.10;;;;;12.10;99705.00;;;;10412822;28;20292;-78
2022/11/18 12:18:58;;;;;;;4.70;1.33;;;;;12.10;99702.00;;;;10425160;28;20277;-78
2022/11/18 12:24:29;;;;;;;5.40;1.40;;;;;12.20;99710.00;;;;10434820;28;20209;-78
2022/11/18 12:29:41;;;;;;;3.10;1.33;;;;;12.00;99709.00;;;;10424617;28;20182;-78
2022/11/18 12:34:43;;;;;;;14.30;2.60;;;;;11.60;99708.00;;;;10465987;28;20202;-78
2022/11/18 12:39:47;;;;;;;3.50;1.40;;;;;11.50;99704.00;;;;10436066;28;20553;-78
2022/11/18 12:44:51;;;;;;;9.60;1.60;;;;;11.30;99708.00;;;;10441044;28;20182;-78
2022/11/18 12:49:59;;;;;;;6.63;2.07;;;;;11.20;99704.00;;;;10477579;28;20193;-78
2022/11/18 12:55:21;;;;;;;3.27;1.60;;;;;10.90;99714.00;;;;10442387;28;20485;-76
2022/11/18 13:00:23;;;;;;;4.17;1.20;;;;;10.90;99713.00;;;;10418583;28;20679;-78
2022/11/18 13:05:28;;;;;;;5.73;1.50;;;;;10.80;99713.00;;;;10439183;28;20215;-78
2022/11/18 13:10:38;;;;;;;3.37;1.30;;;;;10.50;99715.00;;;;10468337;28;20590;-77
2022/11/18 13:26:27;;;;;;;8.83;1.40;;;;;10.10;99722.00;;;;10450982;28;20927;-77
2022/11/18 13:31:50;;;;;;;3.67;1.53;;;;;10.10;99721.00;;;;10450224;28;20205;-77
2022/11/18 13:36:54;;;;;;;5.90;1.50;;;;;10.10;99729.00;;;;10453124;28;20197;-77
2022/11/18 13:42:00;;;;;;;3.93;1.97;;;;;10.00;99731.00;;;;10479289;28;20577;-77
2022/11/18 13:47:23;;;;;;;3.17;1.50;;;;;10.00;99735.00;;;;10456405;28;20212;-77
2022/11/18 13:52:39;;;;;;;2.33;1.40;;;;;10.00;99721.00;;;;10470799;28;20221;-76
2022/11/18 13:57:46;;;;;;;4.17;1.40;;;;;10.00;99734.00;;;;10457890;28;20260;-77
2022/11/18 14:02:54;;;;;;;7.07;2.00;;;;;9.90;99742.00;;;;10453671;28;20186;-77
2022/11/18 14:08:05;;;;;;;5.53;2.30;;;;;9.90;99735.00;;;;10444875;28;20268;-77
2022/11/18 14:13:27;;;;;;;5.97;2.33;;;;;9.90;99745.00;;;;10454449;28;20216;-77
2022/11/18 14:18:33;;;;;;;7.00;2.10;;;;;9.90;99737.00;;;;10476334;28;20904;-76
2022/11/18 14:23:36;;;;;;;7.17;1.80;;;;;9.90;99749.00;;;;10435911;28;20205;-77
2022/11/18 14:28:38;;;;;;;8.77;2.03;;;;;10.00;99751.00;;;;10455799;28;20276;-77
2022/11/18 14:33:40;;;;;;;3.00;2.27;;;;;10.00;99749.00;;;;10447374;28;20302;-77
2022/11/18 14:38:47;;;;;;;9.60;2.37;;;;;10.10;99742.00;;;;10460038;28;20201;-77
2022/11/18 14:44:09;;;;;;;6.60;2.10;;;;;10.20;99753.00;;;;10442867;28;20264;-77
2022/11/18 14:49:14;;;;;;;7.33;2.37;;;;;10.20;99755.00;;;;10440898;28;20248;-78
2022/11/18 14:54:19;;;;;;;9.53;2.33;;;;;10.30;99758.00;;;;10439381;28;20233;-78
2022/11/18 14:59:28;;;;;;;4.33;1.80;;;;;10.30;99765.00;;;;10443971;28;20190;-78
2022/11/18 15:04:30;;;;;;;6.23;2.20;;;;;10.40;99759.00;;;;10466733;28;20254;-78
2022/11/18 15:09:31;;;;;;;3.53;2.10;;;;;10.30;99763.00;;;;10457609;28;20252;-75
2022/11/18 15:14:34;;;;;;;7.83;2.80;;;;;10.20;99771.00;;;;10459598;28;20557;-77
2022/11/18 15:19:37;;;;;;;5.03;2.20;;;;;10.10;99780.00;;;;10415541;28;20194;-78
2022/11/18 15:24:39;;;;;;;5.83;1.97;;;;;10.00;99785.00;;;;10440038;28;20202;-78
2022/11/18 15:29:40;;;;;;;4.67;2.73;;;;;9.80;99791.00;;;;10440792;28;20220;-78
2022/11/18 15:34:42;;;;;;;3.83;2.13;;;;;9.70;99799.00;;;;10421652;28;20543;-77
2022/11/18 15:39:44;;;;;;;4.97;2.37;;;;;9.70;99809.00;;;;10385691;28;20194;-78
2022/11/18 15:44:46;;;;;;;5.77;2.77;;;;;9.70;99801.00;;;;10434786;28;20186;-78
2022/11/18 15:49:48;;;;;;;7.43;3.27;;;;;9.70;99798.00;;;;10418745;28;20183;-78
2022/11/18 15:54:50;;;;;;;8.83;2.87;;;;;9.60;99803.00;;;;10402000;28;20214;-78
2022/11/18 15:59:52;;;;;;;4.67;2.43;;;;;9.60;99809.00;;;;10425634;28;20820;-78
2022/11/18 16:04:54;;;;;;;4.83;3.03;;;;;9.60;99821.00;;;;10443781;28;20213;-78
2022/11/18 16:20:37;;;;;;;9.03;4.70;;;;;9.50;99829.00;;;;10483846;28;20193;-78
2022/11/18 16:25:45;;;;;;;7.63;5.30;;;;;9.50;99826.00;;;;10451033;28;20544;-78
2022/11/18 16:36:09;;;;;;;9.77;4.80;;;;;9.50;99841.00;;;;10476486;28;20279;-78
2022/11/18 16:46:33;;;;;;;8.60;6.30;;;;;9.50;99849.00;;;;10501374;28;20177;-77
2022/11/18 16:51:35;;;;;;;9.33;6.00;;;;;9.50;99833.00;;;;10466406;28;20185;-78
2022/11/18 16:56:39;;;;;;;11.80;7.53;;;;;9.40;99839.00;;;;10432858;28;20263;-78
2022/11/18 17:01:42;;;;;;;11.80;7.87;;;;;9.40;99868.00;;;;10465786;28;20217;-77
2022/11/18 17:06:45;;;;;;;20.67;11.30;;;;;9.40;99879.00;;;;10407485;28;20215;-77
2022/11/18 17:11:48;;;;;;;14.47;8.83;;;;;9.40;99877.00;;;;10454331;28;20224;-77
2022/11/18 17:16:51;;;;;;;12.80;6.93;;;;;9.40;99883.00;;;;10442875;28;20220;-79
2022/11/18 17:21:53;;;;;;;9.10;5.60;;;;;9.30;99888.00;;;;10423650;28;20361;-77
2022/11/18 17:26:55;;;;;;;10.70;4.40;;;;;9.30;99896.00;;;;10422569;28;20202;-78
2022/11/18 17:31:57;;;;;;;9.60;5.47;;;;;9.30;99896.00;;;;10457288;28;20240;-77
2022/11/18 17:36:59;;;;;;;8.13;5.17;;;;;9.30;99906.00;;;;10439603;28;20221;-77
2022/11/18 17:42:16;;;;;;;10.47;5.83;;;;;9.30;99912.00;;;;10447536;28;20216;-77
2022/11/18 17:47:18;;;;;;;10.27;7.03;;;;;9.30;99909.00;;;;10446959;28;20579;-78
2022/11/18 17:52:19;;;;;;;10.37;8.17;;;;;9.30;99920.00;;;;10446070;28;20215;-77
2022/11/18 17:57:21;;;;;;;6.57;5.27;;;;;9.30;99919.00;;;;10446780;28;20281;-77
2022/11/18 18:02:23;;;;;;;11.20;5.57;;;;;9.30;99930.00;;;;10442945;28;20195;-78
2022/11/18 18:07:29;;;;;;;8.50;5.13;;;;;9.30;99934.00;;;;10466496;28;20214;-77
2022/11/18 18:17:51;;;;;;;8.30;4.23;;;;;9.30;99944.00;;;;10434941;28;20237;-77
2022/11/18 18:22:53;;;;;;;15.03;8.87;;;;;9.30;99968.00;;;;10478393;28;20276;-77
2022/11/18 18:27:55;;;;;;;6.10;4.30;;;;;9.20;99951.00;;;;10445660;28;20559;-78
2022/11/18 18:32:57;;;;;;;6.37;4.53;;;;;9.10;99960.00;;;;10448612;28;20564;-77
2022/11/18 18:37:59;;;;;;;5.63;4.67;;;;;9.10;99953.00;;;;10426032;28;20202;-77
2022/11/18 18:43:00;;;;;;;9.73;5.90;;;;;9.10;99969.00;;;;10450163;28;20196;-77
2022/11/18 18:48:03;;;;;;;8.57;6.70;;;;;9.10;99980.00;;;;10430523;28;20191;-78
2022/11/18 18:53:04;;;;;;;7.57;6.37;;;;;9.20;99974.00;;;;10427732;28;20216;-77
2022/11/18 18:58:06;;;;;;;10.97;6.43;;;;;9.20;99979.00;;;;10419191;28;20198;-78
2022/11/18 19:03:08;;;;;;;10.63;7.80;;;;;9.20;99983.00;;;;10429344;28;20641;-77
2022/11/18 19:08:10;;;;;;;10.77;8.57;;;;;9.20;99988.00;;;;10435218;28;20716;-77
2022/11/18 19:13:12;;;;;;;10.93;8.83;;;;;9.20;99995.00;;;;10435502;28;20214;-77
2022/11/18 19:18:14;;;;;;;7.53;6.50;;;;;9.20;99993.00;;;;10431749;28;20196;-77
2022/11/18 19:23:16;;;;;;;11.10;6.30;;;;;9.20;100003.00;;;;10411925;28;20688;-77
2022/11/18 19:28:18;;;;;;;9.00;5.70;;;;;9.10;99997.00;;;;10411246;28;20281;-77
2022/11/18 19:33:20;;;;;;;7.57;4.93;;;;;9.10;100001.00;;;;10418645;28;20821;-77
2022/11/18 19:38:22;;;;;;;12.80;5.63;;;;;9.00;100006.00;;;;10401001;28;20315;-77
2022/11/18 19:43:26;;;;;;;9.87;5.77;;;;;9.00;100017.00;;;;10460643;28;20189;-77
2022/11/18 19:48:27;;;;;;;10.70;5.67;;;;;9.00;100021.00;;;;10441487;28;20197;-77
2022/11/18 19:53:33;;;;;;;12.70;5.23;;;;;9.00;100023.00;;;;10428850;28;20655;-77
2022/11/18 19:58:38;;;;;;;6.67;5.20;;;;;9.00;100031.00;;;;10415644;28;20212;-78
2022/11/18 20:03:42;;;;;;;11.33;7.77;;;;;9.00;100030.00;;;;10432618;28;20201;-78
2022/11/18 20:08:45;;;;;;;9.63;6.77;;;;;9.00;100032.00;;;;10447177;28;20267;-77
2022/11/18 20:13:47;;;;;;;12.00;6.37;;;;;9.00;100031.00;;;;10455654;28;20233;-77
2022/11/18 20:18:54;;;;;;;11.60;6.43;;;;;9.00;100030.00;;;;10425247;28;20190;-77
2022/11/18 20:23:58;;;;;;;10.03;6.60;;;;;9.00;100037.00;;;;10451567;28;20220;-78
2022/11/18 20:29:01;;;;;;;9.00;6.60;;;;;9.00;100033.00;;;;10417865;28;20186;-77
2022/11/18 20:34:03;;;;;;;9.60;6.47;;;;;8.90;100045.00;;;;10430607;28;20216;-77
2022/11/18 20:39:11;;;;;;;10.90;6.17;;;;;8.90;100043.00;;;;10467982;28;20190;-77
2022/11/18 20:44:13;;;;;;;12.17;6.57;;;;;8.90;100041.00;;;;10438144;28;20201;-78
2022/11/18 20:49:15;;;;;;;8.60;6.30;;;;;8.90;100034.00;;;;10419863;28;20194;-77
2022/11/18 20:54:18;;;;;;;9.70;6.30;;;;;8.90;100045.00;;;;10456967;28;20267;-77
2022/11/18 20:59:19;;;;;;;11.60;6.57;;;;;8.90;100047.00;;;;10427627;28;20206;-78
2022/11/18 21:04:22;;;;;;;10.80;6.80;;;;;8.80;100059.00;;;;10427275;28;20255;-77
2022/11/18 21:09:24;;;;;;;8.93;6.27;;;;;8.80;100054.00;;;;10437044;28;20214;-78
2022/11/18 21:14:26;;;;;;;12.90;6.90;;;;;8.80;100058.00;;;;10438282;28;20237;-78
2022/11/18 21:19:28;;;;;;;14.30;7.57;;;;;8.70;100063.00;;;;10422407;28;20205;-78
2022/11/18 21:24:32;;;;;;;14.43;8.50;;;;;8.70;100077.00;;;;10405614;28;21499;-78
2022/11/18 21:29:34;;;;;;;10.80;7.53;;;;;8.70;100075.00;;;;10432020;28;20194;-77
2022/11/18 21:34:36;;;;;;;13.67;8.17;;;;;8.70;100076.00;;;;10418500;28;21108;-77
2022/11/18 21:39:38;;;;;;;15.77;7.73;;;;;8.70;100070.00;;;;10474759;28;20195;-77
2022/11/18 21:44:40;;;;;;;13.47;7.57;;;;;8.70;100092.00;;;;10454313;28;20190;-77
2022/11/18 21:49:42;;;;;;;16.43;8.67;;;;;8.70;100086.00;;;;10433806;28;20256;-78
2022/11/18 21:54:44;;;;;;;13.40;9.00;;;;;8.70;100088.00;;;;10433828;28;20198;-77
2022/11/18 21:59:51;;;;;;;15.03;8.33;;;;;8.70;100090.00;;;;10409204;28;20202;-77
2022/11/18 22:04:54;;;;;;;13.73;8.33;;;;;8.60;100085.00;;;;10434385;28;20193;-77
2022/11/18 22:09:56;;;;;;;16.37;10.43;;;;;8.60;100080.00;;;;10445157;28;20394;-77
2022/11/18 22:14:58;;;;;;;14.33;8.70;;;;;8.60;100088.00;;;;10437293;28;20197;-77
2022/11/18 22:20:00;;;;;;;19.30;8.97;;;;;8.60;100093.00;;;;10449953;28;20194;-77
2022/11/18 22:25:03;;;;;;;18.90;9.23;;;;;8.60;100091.00;;;;10444716;28;20936;-77
2022/11/18 22:30:06;;;;;;;15.03;9.47;;;;;8.60;100094.00;;;;10421257;28;20978;-77
2022/11/18 22:35:08;;;;;;;18.83;10.80;;;;;8.60;100097.00;;;;10451826;28;20202;-78
2022/11/18 22:40:11;;;;;;;15.33;9.63;;;;;8.60;100104.00;;;;10447942;28;20269;-77
2022/11/18 22:45:14;;;;;;;17.53;10.37;;;;;8.50;100101.00;;;;10453544;28;20194;-78
2022/11/18 22:50:16;;;;;;;21.43;10.83;;;;;8.50;100101.00;;;;10441382;28;20217;-78
2022/11/18 22:55:18;;;;;;;19.70;10.77;;;;;8.50;100108.00;;;;10433128;28;20214;-78
2022/11/18 23:00:20;;;;;;;19.60;11.70;;;;;8.50;100108.00;;;;10445289;28;20193;-78
2022/11/18 23:05:22;;;;;;;18.93;11.60;;;;;8.50;100131.00;;;;10475124;28;20305;-78
2022/11/18 23:10:24;;;;;;;18.90;11.47;;;;;8.40;100128.00;;;;10400645;28;20183;-78
2022/11/18 23:15:26;;;;;;;18.27;12.10;;;;;8.40;100138.00;;;;10423097;28;20296;-78
2022/11/18 23:20:28;;;;;;;19.20;11.97;;;;;8.40;100147.00;;;;10412749;28;20217;-77
2022/11/18 23:25:30;;;;;;;17.63;10.63;;;;;8.40;100149.00;;;;10442884;28;20197;-78
2022/11/18 23:30:32;;;;;;;19.93;12.47;;;;;8.40;100155.00;;;;10436667;28;20277;-78
2022/11/18 23:35:34;;;;;;;21.73;11.53;;;;;8.40;100156.00;;;;10457116;28;20232;-77
2022/11/18 23:40:38;;;;;;;16.83;11.73;;;;;8.30;100154.00;;;;10443158;28;20197;-75
2022/11/18 23:45:40;;;;;;;17.60;11.90;;;;;8.30;100156.00;;;;10457726;28;20182;-76
2022/11/18 23:50:55;;;;;;;19.33;12.10;;;;;8.30;100156.00;;;;10440285;28;20205;-78
2022/11/18 23:55:57;;;;;;;22.20;11.53;;;;;8.30;100158.00;;;;10433796;28;20725;-78
